Time;durP1;ratioP1;P1;durP2;ratioP2;P2;SDS_P1;SDS_P2;PMS_P1;PMS_P2;Temp;Humidity;BMP_temperature;BMP_pressure;BME280_temperature;BME280_humidity;BME280_pressure;Samples;Min_cycle;Max_cycle;Signal;HPM_P1;HPM_P2
2024/03/16 00:02:04;;;;;;;6.70;6.30;;;20.10;60.30;;;;;;4948726;29;20516;-63
2024/03/16 00:04:32;;;;;;;6.60;6.50;;;20.00;60.20;;;;;;4928832;29;20480;-63
2024/03/16 00:06:59;;;;;;;6.13;6.03;;;19.90;60.60;;;;;;4940845;29;20442;-63
2024/03/16 00:09:26;;;;;;;6.33;6.23;;;19.70;60.90;;;;;;4938480;29;20510;-63
2024/03/16 00:11:53;;;;;;;6.97;6.70;;;19.70;61.10;;;;;;4931837;29;20449;-63
2024/03/16 00:14:20;;;;;;;6.87;6.77;;;19.70;61.20;;;;;;4973689;23;20490;-63
2024/03/16 00:16:46;;;;;;;7.50;7.30;;;19.80;61.20;;;;;;4987434;28;20445;-62
2024/03/16 00:19:13;;;;;;;6.80;6.60;;;19.70;61.00;;;;;;4990561;28;20830;-62
2024/03/16 00:21:40;;;;;;;7.23;6.83;;;19.70;61.20;;;;;;4995844;28;20462;-62
2024/03/16 00:24:08;;;;;;;6.50;6.40;;;19.70;61.40;;;;;;4985121;28;20471;-63
2024/03/16 00:26:35;;;;;;;6.27;6.17;;;19.60;61.30;;;;;;4973117;28;20436;-63
2024/03/16 00:29:07;;;;;;;6.50;6.40;;;19.60;61.40;;;;;;4965961;28;20941;-62
2024/03/16 00:31:33;;;;;;;6.30;6.10;;;19.60;61.40;;;;;;4961907;28;20470;-63
2024/03/16 00:34:00;;;;;;;6.40;6.20;;;19.50;61.10;;;;;;4977024;28;20483;-63
2024/03/16 00:36:27;;;;;;;6.10;5.90;;;19.40;61.40;;;;;;4971835;28;20466;-62
2024/03/16 00:38:54;;;;;;;7.33;7.07;;;19.30;61.50;;;;;;4968806;28;20440;-63
2024/03/16 00:41:21;;;;;;;7.53;6.90;;;19.30;61.60;;;;;;4984033;28;20482;-62
2024/03/16 00:43:48;;;;;;;7.60;7.40;;;19.10;61.60;;;;;;4984461;28;20465;-63
2024/03/16 00:46:14;;;;;;;6.90;6.70;;;19.20;62.00;;;;;;4982689;28;20443;-61
2024/03/16 00:48:41;;;;;;;7.77;7.37;;;19.10;62.10;;;;;;4979897;28;20444;-62
2024/03/16 00:51:08;;;;;;;6.80;6.33;;;19.00;62.30;;;;;;4983814;28;20443;-62
2024/03/16 00:53:36;;;;;;;6.80;6.60;;;19.00;62.30;;;;;;4983626;28;20447;-63
2024/03/16 00:56:03;;;;;;;5.90;5.80;;;19.00;62.40;;;;;;4980016;28;20853;-61
2024/03/16 00:58:30;;;;;;;6.83;6.50;;;18.90;62.50;;;;;;4976282;28;20439;-63
2024/03/16 01:00:57;;;;;;;6.53;6.33;;;19.00;62.80;;;;;;4979815;28;20479;-63
2024/03/16 01:03:24;;;;;;;6.83;6.63;;;18.90;62.80;;;;;;4974470;28;20459;-62
2024/03/16 01:05:52;;;;;;;6.10;5.90;;;18.90;62.70;;;;;;4965195;28;20452;-63
2024/03/16 01:08:19;;;;;;;7.37;7.07;;;18.90;62.90;;;;;;4981696;28;20940;-63
2024/03/16 01:10:45;;;;;;;6.90;6.50;;;18.80;63.00;;;;;;4979514;28;20447;-62
2024/03/16 01:13:12;;;;;;;6.67;6.47;;;18.80;63.10;;;;;;4983260;28;20439;-63
2024/03/16 01:15:39;;;;;;;6.47;6.27;;;18.90;63.30;;;;;;4981777;28;20471;-63
2024/03/16 01:18:06;;;;;;;6.50;6.20;;;18.90;63.00;;;;;;4976169;28;20446;-63
2024/03/16 01:20:33;;;;;;;7.27;6.97;;;18.80;63.00;;;;;;4982874;28;20475;-62
2024/03/16 01:23:00;;;;;;;6.17;5.90;;;18.80;63.30;;;;;;4979750;28;20444;-63
2024/03/16 01:25:27;;;;;;;7.03;6.67;;;18.70;63.30;;;;;;4973778;28;20471;-63
2024/03/16 01:27:53;;;;;;;7.33;7.03;;;18.60;63.40;;;;;;4964297;28;20443;-63
2024/03/16 01:30:21;;;;;;;6.23;5.93;;;18.60;63.80;;;;;;4980618;28;20952;-63
2024/03/16 01:32:48;;;;;;;5.90;5.80;;;18.60;63.90;;;;;;4979322;28;20944;-63
2024/03/16 01:35:14;;;;;;;6.60;6.50;;;18.60;63.90;;;;;;4970422;28;20463;-63
2024/03/16 01:37:41;;;;;;;7.10;6.70;;;18.60;64.00;;;;;;4974716;28;20447;-61
2024/03/16 01:40:08;;;;;;;6.70;6.40;;;18.50;64.40;;;;;;4980192;28;20232;-62
2024/03/16 01:42:35;;;;;;;6.77;6.23;;;18.50;64.50;;;;;;4972893;28;20451;-62
2024/03/16 01:45:06;;;;;;;6.67;6.53;;;18.50;64.50;;;;;;4972173;28;20477;-63
2024/03/16 01:47:33;;;;;;;7.20;6.90;;;18.40;64.70;;;;;;4977014;28;20440;-63
2024/03/16 01:50:00;;;;;;;7.17;6.80;;;18.40;64.70;;;;;;4971002;28;23034;-62
2024/03/16 01:52:27;;;;;;;7.03;6.63;;;18.30;64.90;;;;;;4979894;28;20443;-62
2024/03/16 01:54:54;;;;;;;7.00;6.70;;;18.40;65.00;;;;;;4977819;28;20467;-62
2024/03/16 01:57:21;;;;;;;6.77;6.47;;;18.30;65.00;;;;;;4974682;28;20940;-62
2024/03/16 01:59:49;;;;;;;6.80;6.47;;;18.30;65.10;;;;;;4979723;28;20489;-62
2024/03/16 02:02:30;;;;;;;7.63;7.23;;;18.20;65.40;;;;;;4969282;28;20440;-61
2024/03/16 02:04:57;;;;;;;7.53;6.90;;;18.20;65.80;;;;;;4969257;28;20467;-64
2024/03/16 02:07:24;;;;;;;6.27;5.97;;;18.20;66.20;;;;;;4991433;28;20880;-65
2024/03/16 02:09:51;;;;;;;6.63;6.13;;;18.10;66.40;;;;;;4967129;28;20456;-65
2024/03/16 02:12:18;;;;;;;6.50;6.37;;;18.20;66.80;;;;;;4980140;28;20447;-64
2024/03/16 02:14:45;;;;;;;6.80;6.50;;;18.10;66.90;;;;;;4979003;28;20529;-64
2024/03/16 02:17:12;;;;;;;7.30;6.90;;;18.10;67.10;;;;;;4975184;28;20805;-64
2024/03/16 02:19:39;;;;;;;6.67;6.47;;;18.00;67.30;;;;;;4979178;28;20451;-64
2024/03/16 02:22:06;;;;;;;6.20;6.00;;;18.00;67.70;;;;;;4978780;28;20453;-64
2024/03/16 02:24:33;;;;;;;7.03;6.73;;;17.90;67.90;;;;;;4979144;28;20891;-64
2024/03/16 02:27:00;;;;;;;7.20;6.90;;;17.90;68.10;;;;;;4975720;28;20499;-64
2024/03/16 02:29:28;;;;;;;6.30;6.00;;;17.90;68.10;;;;;;4979752;28;20482;-63
2024/03/16 02:31:55;;;;;;;7.33;7.03;;;17.90;68.10;;;;;;4977365;28;20770;-64
2024/03/16 02:34:21;;;;;;;7.03;6.50;;;17.90;68.30;;;;;;4968753;28;20464;-64
2024/03/16 02:36:48;;;;;;;6.80;6.40;;;18.00;68.30;;;;;;4962594;28;20436;-63
2024/03/16 02:39:16;;;;;;;6.83;6.53;;;18.00;68.30;;;;;;4979056;28;20447;-64
2024/03/16 02:41:43;;;;;;;6.90;6.60;;;17.90;68.40;;;;;;4976348;28;20574;-64
2024/03/16 02:44:10;;;;;;;6.97;6.77;;;17.80;68.60;;;;;;4966368;28;20462;-63
2024/03/16 02:46:36;;;;;;;6.90;6.70;;;17.80;69.20;;;;;;4967014;28;20510;-64
2024/03/16 02:49:04;;;;;;;6.60;6.40;;;17.80;69.30;;;;;;4986021;28;20450;-64
2024/03/16 02:51:30;;;;;;;6.70;6.50;;;17.80;69.30;;;;;;4978281;28;20439;-64
2024/03/16 02:53:58;;;;;;;7.20;7.00;;;17.80;69.30;;;;;;4975689;28;20494;-64
2024/03/16 02:56:24;;;;;;;6.90;6.60;;;17.80;69.70;;;;;;4967050;28;20467;-64
2024/03/16 02:58:51;;;;;;;6.80;6.60;;;17.90;69.70;;;;;;4965324;28;21160;-64
2024/03/16 03:01:19;;;;;;;7.70;7.10;;;17.90;69.70;;;;;;4977912;28;20485;-64
2024/03/16 03:03:46;;;;;;;7.00;6.70;;;17.80;69.90;;;;;;4977677;28;20819;-64
2024/03/16 03:06:13;;;;;;;7.27;6.90;;;17.80;70.30;;;;;;4963232;28;20444;-64
2024/03/16 03:08:40;;;;;;;7.57;6.70;;;17.80;70.40;;;;;;4963234;28;20498;-64
2024/03/16 03:11:08;;;;;;;6.30;6.00;;;17.80;70.70;;;;;;4969691;28;20445;-64
2024/03/16 03:13:35;;;;;;;6.97;6.57;;;17.80;70.90;;;;;;4978050;28;20450;-64
2024/03/16 03:16:02;;;;;;;7.50;7.10;;;17.70;71.30;;;;;;4974408;28;20442;-64
2024/03/16 03:18:29;;;;;;;8.47;7.77;;;17.70;71.70;;;;;;4969117;28;20803;-64
2024/03/16 03:20:56;;;;;;;7.00;6.70;;;17.60;72.10;;;;;;4966220;28;20488;-64
2024/03/16 03:23:22;;;;;;;7.80;7.40;;;17.60;72.20;;;;;;4978168;28;20494;-64
2024/03/16 03:25:49;;;;;;;7.10;6.80;;;17.60;72.40;;;;;;4976125;28;20439;-64
2024/03/16 03:28:16;;;;;;;7.10;6.80;;;17.60;72.80;;;;;;4967327;28;20448;-64
2024/03/16 03:30:43;;;;;;;7.93;7.53;;;17.70;72.80;;;;;;4962994;28;20938;-64
2024/03/16 03:33:10;;;;;;;7.93;7.53;;;17.70;72.70;;;;;;4969708;28;20443;-64
2024/03/16 03:35:37;;;;;;;7.60;7.30;;;17.60;73.30;;;;;;4976683;28;20467;-65
2024/03/16 03:38:04;;;;;;;7.33;6.90;;;17.60;73.50;;;;;;4975400;28;20478;-64
2024/03/16 03:40:30;;;;;;;6.93;6.57;;;17.60;73.50;;;;;;4969616;28;21034;-64
2024/03/16 03:43:00;;;;;;;7.60;7.30;;;17.50;73.90;;;;;;4968221;28;20442;-64
2024/03/16 03:45:38;;;;;;;7.70;7.40;;;17.50;74.40;;;;;;4978208;28;20498;-64
2024/03/16 03:48:14;;;;;;;7.93;7.63;;;17.40;74.90;;;;;;4977547;28;20525;-64
2024/03/16 03:50:41;;;;;;;8.03;7.63;;;17.40;75.20;;;;;;4972591;28;20443;-64
2024/03/16 03:53:08;;;;;;;7.50;7.30;;;17.40;75.40;;;;;;4964746;28;20435;-64
2024/03/16 03:55:35;;;;;;;8.07;7.57;;;17.40;75.70;;;;;;4978120;28;20466;-64
2024/03/16 03:58:02;;;;;;;7.43;7.23;;;17.40;75.90;;;;;;4976277;28;20545;-65
2024/03/16 04:00:29;;;;;;;7.80;7.40;;;17.40;76.10;;;;;;4969993;28;20484;-64
2024/03/16 04:02:56;;;;;;;7.87;7.47;;;17.40;76.20;;;;;;4963217;28;20436;-64
2024/03/16 04:05:23;;;;;;;7.50;7.30;;;17.30;76.60;;;;;;4977920;28;20470;-64
2024/03/16 04:07:50;;;;;;;7.63;7.20;;;17.30;77.20;;;;;;4977720;28;20446;-64
2024/03/16 04:10:17;;;;;;;7.97;7.57;;;17.30;77.30;;;;;;4967753;28;20448;-64
2024/03/16 04:12:43;;;;;;;7.70;7.10;;;17.30;77.60;;;;;;4962212;28;20439;-64
2024/03/16 04:15:10;;;;;;;8.57;8.27;;;17.30;77.70;;;;;;4980412;28;20478;-64
2024/03/16 04:17:37;;;;;;;8.70;8.40;;;17.30;77.70;;;;;;4981434;28;20447;-64
2024/03/16 04:20:06;;;;;;;7.37;7.17;;;17.30;78.00;;;;;;4979104;28;20819;-64
2024/03/16 04:22:33;;;;;;;6.87;6.60;;;17.30;79.10;;;;;;4978259;28;20478;-64
2024/03/16 04:25:03;;;;;;;7.40;7.00;;;17.20;79.00;;;;;;4978716;28;20462;-64
2024/03/16 04:27:30;;;;;;;9.00;8.30;;;17.20;79.30;;;;;;4972498;28;20452;-64
2024/03/16 04:29:57;;;;;;;7.10;6.90;;;17.20;79.40;;;;;;4968233;28;20455;-65
2024/03/16 04:32:26;;;;;;;7.57;7.13;;;17.20;79.60;;;;;;4980522;28;20924;-64
2024/03/16 04:34:53;;;;;;;8.30;8.00;;;17.20;79.60;;;;;;4979683;28;20599;-64
2024/03/16 04:37:20;;;;;;;7.40;7.20;;;17.20;79.70;;;;;;4970069;28;20448;-64
2024/03/16 04:39:47;;;;;;;8.53;8.23;;;17.20;79.70;;;;;;4967271;28;20817;-63
2024/03/16 04:42:14;;;;;;;10.37;9.80;;;17.20;80.00;;;;;;4974090;28;21083;-64
2024/03/16 04:44:41;;;;;;;8.60;8.23;;;17.10;80.20;;;;;;4976428;28;20469;-64
2024/03/16 04:47:08;;;;;;;8.20;7.60;;;17.10;80.40;;;;;;4973579;28;20452;-63
2024/03/16 04:49:35;;;;;;;8.37;7.97;;;17.10;80.70;;;;;;4982655;28;20522;-64
2024/03/16 04:52:02;;;;;;;8.13;7.73;;;17.00;81.00;;;;;;4976160;28;20439;-64
2024/03/16 04:54:29;;;;;;;7.87;7.57;;;17.00;82.20;;;;;;4984544;28;20466;-64
2024/03/16 04:56:56;;;;;;;8.30;8.00;;;17.00;81.50;;;;;;4979089;28;20454;-64
2024/03/16 04:59:22;;;;;;;8.23;7.93;;;17.10;81.30;;;;;;4974217;28;20451;-64
2024/03/16 05:01:49;;;;;;;8.27;7.90;;;17.10;81.50;;;;;;4976305;28;20487;-64
2024/03/16 05:04:16;;;;;;;8.50;8.10;;;17.00;81.60;;;;;;4972214;28;20470;-63
2024/03/16 05:06:43;;;;;;;7.97;7.57;;;17.00;82.20;;;;;;4980856;28;20471;-64
2024/03/16 05:09:10;;;;;;;8.47;8.03;;;16.90;82.60;;;;;;4977809;28;20479;-64
2024/03/16 05:11:37;;;;;;;8.40;7.90;;;17.00;83.00;;;;;;4970520;28;20447;-64
2024/03/16 05:14:06;;;;;;;8.10;7.70;;;17.00;83.00;;;;;;4978268;28;20467;-64
2024/03/16 05:16:33;;;;;;;7.80;7.40;;;17.00;83.20;;;;;;4971520;28;21181;-64
2024/03/16 05:19:02;;;;;;;8.20;7.90;;;16.90;83.50;;;;;;4963593;28;20440;-64
2024/03/16 05:21:29;;;;;;;8.43;8.00;;;16.90;83.60;;;;;;4977916;28;20518;-64
2024/03/16 05:23:55;;;;;;;7.97;7.67;;;16.90;83.70;;;;;;4971123;28;20456;-64
2024/03/16 05:26:22;;;;;;;8.07;7.47;;;16.90;84.20;;;;;;4980748;28;20447;-64
2024/03/16 05:28:49;;;;;;;7.97;7.67;;;16.80;84.60;;;;;;4980370;28;20944;-64
2024/03/16 05:31:16;;;;;;;10.10;9.53;;;16.80;85.00;;;;;;4978366;28;20431;-64
2024/03/16 05:33:43;;;;;;;8.30;7.90;;;16.80;85.60;;;;;;4979579;28;20466;-64
2024/03/16 05:36:12;;;;;;;8.00;7.70;;;16.80;85.70;;;;;;4976949;28;20447;-61
2024/03/16 05:38:39;;;;;;;7.60;7.20;;;16.90;85.30;;;;;;4973439;28;20443;-60
2024/03/16 05:41:06;;;;;;;9.10;8.60;;;17.10;84.00;;;;;;4969570;28;20486;-61
2024/03/16 05:43:33;;;;;;;6.87;6.67;;;17.30;82.10;;;;;;4981052;28;20474;-61
2024/03/16 05:46:00;;;;;;;7.13;6.80;;;17.40;80.70;;;;;;4980025;28;20451;-60
2024/03/16 05:48:27;;;;;;;7.00;6.80;;;17.50;79.90;;;;;;4968429;28;20451;-58
2024/03/16 05:50:55;;;;;;;6.47;6.27;;;17.60;79.40;;;;;;4968199;28;20491;-60
2024/03/16 05:53:22;;;;;;;6.53;6.43;;;17.70;79.00;;;;;;4980251;28;20879;-60
2024/03/16 05:55:50;;;;;;;6.77;6.67;;;17.80;78.40;;;;;;4979491;28;20450;-59
2024/03/16 05:58:16;;;;;;;7.20;6.90;;;17.90;78.10;;;;;;4973610;28;20443;-60
2024/03/16 06:00:44;;;;;;;7.97;7.67;;;18.00;77.70;;;;;;4975733;28;20454;-61
2024/03/16 06:03:11;;;;;;;7.57;7.37;;;18.00;77.00;;;;;;4977893;28;20449;-60
2024/03/16 06:05:37;;;;;;;7.97;7.67;;;18.10;76.60;;;;;;4970985;28;20834;-61
2024/03/16 06:08:05;;;;;;;7.60;7.40;;;18.10;75.90;;;;;;4967843;28;20443;-60
2024/03/16 06:10:32;;;;;;;6.70;6.50;;;18.20;75.60;;;;;;4980697;28;20451;-59
2024/03/16 06:12:59;;;;;;;8.43;7.93;;;18.20;75.00;;;;;;4977905;28;20440;-59
2024/03/16 06:15:26;;;;;;;7.50;7.37;;;18.30;74.70;;;;;;4983649;23;20579;-66
2024/03/16 06:17:52;;;;;;;7.20;7.00;;;18.30;74.40;;;;;;4929947;29;20835;-65
2024/03/16 06:20:19;;;;;;;7.33;7.13;;;18.30;73.90;;;;;;4926367;29;20500;-66
2024/03/16 06:22:48;;;;;;;7.57;7.37;;;18.40;73.70;;;;;;4949123;28;20491;-65
2024/03/16 06:25:14;;;;;;;8.20;7.60;;;18.40;73.30;;;;;;4940930;29;20466;-65
2024/03/16 06:27:49;;;;;;;6.97;6.87;;;18.50;73.50;;;;;;4934787;29;20464;-66
2024/03/16 06:30:16;;;;;;;7.20;6.97;;;18.50;73.00;;;;;;4933992;29;20437;-66
2024/03/16 06:33:05;;;;;;;7.30;7.10;;;18.50;72.70;;;;;;4934155;29;20445;-66
2024/03/16 06:35:32;;;;;;;7.20;7.10;;;18.60;72.60;;;;;;4946467;28;20542;-66
2024/03/16 06:37:59;;;;;;;7.90;7.60;;;18.60;72.70;;;;;;4933919;29;20449;-66
2024/03/16 06:40:26;;;;;;;7.90;7.47;;;18.60;72.50;;;;;;4933754;29;20505;-66
2024/03/16 06:42:53;;;;;;;7.50;7.30;;;18.60;72.20;;;;;;4933919;29;20489;-66
2024/03/16 06:45:20;;;;;;;7.50;7.30;;;18.70;72.60;;;;;;4941694;29;20454;-65
2024/03/16 06:47:46;;;;;;;7.47;7.27;;;18.70;72.10;;;;;;4933823;29;20452;-58
2024/03/16 06:50:14;;;;;;;7.27;7.10;;;18.70;72.00;;;;;;4933541;29;20442;-63
2024/03/16 06:52:41;;;;;;;7.57;7.17;;;18.90;73.00;;;;;;4934562;29;20445;-61
2024/03/16 06:55:08;;;;;;;7.00;6.80;;;18.90;72.80;;;;;;4934797;29;20472;-63
2024/03/16 06:57:34;;;;;;;7.70;7.50;;;19.00;73.00;;;;;;4933637;29;20461;-63
2024/03/16 07:00:01;;;;;;;7.63;7.43;;;19.10;72.90;;;;;;4933249;29;20465;-63
2024/03/16 07:02:28;;;;;;;6.97;6.83;;;19.10;72.40;;;;;;4933719;29;20854;-63
2024/03/16 07:04:56;;;;;;;5.65;5.40;;;19.20;72.70;;;;;;4930148;29;20437;-69
2024/03/16 07:07:23;;;;;;;4.77;4.67;;;19.30;72.30;;;;;;4925606;29;20209;-65
2024/03/16 07:09:50;;;;;;;4.47;4.37;;;19.30;71.60;;;;;;4933420;29;20478;-66
2024/03/16 07:12:17;;;;;;;4.60;4.40;;;19.40;71.40;;;;;;4933468;29;20437;-64
2024/03/16 07:14:44;;;;;;;4.60;4.50;;;19.50;71.10;;;;;;4932860;29;20470;-58
2024/03/16 07:17:11;;;;;;;3.20;3.10;;;19.50;71.40;;;;;;4932097;29;20468;-63
2024/03/16 07:19:38;;;;;;;4.77;4.47;;;19.50;71.50;;;;;;4933489;29;20457;-63
2024/03/16 07:22:05;;;;;;;4.00;4.00;;;19.60;71.20;;;;;;4939366;29;20862;-64
2024/03/16 07:24:31;;;;;;;4.00;4.00;;;19.60;71.60;;;;;;4933034;29;20461;-63
2024/03/16 07:26:58;;;;;;;4.13;4.03;;;19.70;71.80;;;;;;4933275;29;20454;-66
2024/03/16 07:29:26;;;;;;;4.33;4.13;;;19.70;71.70;;;;;;4933415;29;20238;-67
2024/03/16 07:31:53;;;;;;;5.93;4.10;;;19.70;73.00;;;;;;4933514;29;20469;-64
2024/03/16 07:34:21;;;;;;;4.70;4.60;;;19.70;72.40;;;;;;4948531;29;20480;-64
2024/03/16 07:36:48;;;;;;;5.70;5.53;;;19.70;71.90;;;;;;4933259;29;20460;-62
2024/03/16 07:39:15;;;;;;;5.07;4.70;;;19.70;72.20;;;;;;4933141;29;20446;-61
2024/03/16 07:41:42;;;;;;;5.13;4.93;;;19.70;73.60;;;;;;4933423;29;20496;-57
2024/03/16 07:44:09;;;;;;;6.10;6.00;;;19.70;73.60;;;;;;4940954;29;20552;-66
2024/03/16 07:46:36;;;;;;;5.67;5.57;;;19.70;72.60;;;;;;4932721;29;20445;-65
2024/03/16 07:49:03;;;;;;;9.73;5.60;;;19.80;71.60;;;;;;4939206;29;20433;-65
2024/03/16 07:51:30;;;;;;;5.23;5.10;;;19.80;71.20;;;;;;4936978;29;20878;-65
2024/03/16 07:53:58;;;;;;;4.23;4.23;;;19.80;70.60;;;;;;4936568;29;20982;-66
2024/03/16 07:56:25;;;;;;;4.20;4.10;;;19.80;70.60;;;;;;4929015;29;20811;-62
2024/03/16 07:58:52;;;;;;;3.83;3.73;;;19.90;70.60;;;;;;4936947;29;20448;-62
2024/03/16 08:01:19;;;;;;;4.90;4.50;;;20.10;70.40;;;;;;4949487;29;20470;-64
2024/03/16 08:03:46;;;;;;;3.90;3.80;;;20.20;70.10;;;;;;4941221;29;20486;-65
2024/03/16 08:06:13;;;;;;;4.10;4.00;;;20.30;69.50;;;;;;4942994;29;20439;-67
2024/03/16 08:08:40;;;;;;;4.20;4.00;;;20.40;69.20;;;;;;4936789;29;20776;-64
2024/03/16 08:11:07;;;;;;;4.63;4.53;;;20.40;69.00;;;;;;4951287;29;20442;-65
2024/03/16 08:13:35;;;;;;;4.30;4.10;;;20.40;68.70;;;;;;4941214;29;20807;-63
2024/03/16 08:16:02;;;;;;;4.40;4.20;;;20.30;68.60;;;;;;4941083;29;20978;-62
2024/03/16 08:18:29;;;;;;;4.33;4.23;;;20.30;68.80;;;;;;4936303;29;20461;-59
2024/03/16 08:20:58;;;;;;;4.17;4.07;;;20.40;68.80;;;;;;4936712;29;20445;-59
2024/03/16 08:23:27;;;;;;;3.77;3.77;;;20.40;68.40;;;;;;4936424;29;20548;-58
2024/03/16 08:25:53;;;;;;;4.13;4.03;;;20.50;68.50;;;;;;4935784;29;20461;-59
2024/03/16 08:28:20;;;;;;;4.67;4.23;;;20.50;68.30;;;;;;4936110;29;20810;-62
2024/03/16 08:30:48;;;;;;;4.33;4.23;;;20.50;68.20;;;;;;4936057;29;20476;-61
2024/03/16 08:33:13;;;;;;;4.30;4.20;;;20.50;68.20;;;;;;4944072;29;20449;-64
2024/03/16 08:35:40;;;;;;;4.10;4.10;;;20.50;68.20;;;;;;4935609;29;21036;-61
2024/03/16 08:38:07;;;;;;;4.30;4.30;;;20.60;68.30;;;;;;4943698;29;20214;-64
2024/03/16 08:40:34;;;;;;;4.20;4.20;;;20.50;67.80;;;;;;4937607;29;20441;-64
2024/03/16 08:43:01;;;;;;;4.40;4.20;;;20.60;68.30;;;;;;4935813;29;20481;-63
2024/03/16 08:45:30;;;;;;;4.70;4.53;;;20.50;68.10;;;;;;4935573;29;20469;-59
2024/03/16 08:47:57;;;;;;;4.20;4.10;;;20.60;68.20;;;;;;4935916;29;20485;-59
2024/03/16 08:50:25;;;;;;;4.30;4.20;;;20.60;67.90;;;;;;4948706;29;21016;-66
2024/03/16 08:52:52;;;;;;;4.53;4.43;;;20.50;68.00;;;;;;4940427;29;20454;-63
2024/03/16 08:55:20;;;;;;;4.73;4.50;;;20.50;68.00;;;;;;4942313;29;20489;-64
2024/03/16 08:57:46;;;;;;;4.10;4.10;;;20.60;67.90;;;;;;4935516;29;20461;-63
2024/03/16 09:00:15;;;;;;;4.20;4.20;;;20.60;68.10;;;;;;4949445;29;20449;-66
2024/03/16 09:02:42;;;;;;;5.00;4.90;;;20.60;67.70;;;;;;4939829;29;20478;-67
2024/03/16 09:05:09;;;;;;;5.03;4.73;;;20.60;67.30;;;;;;4940724;29;20501;-66
2024/03/16 09:07:38;;;;;;;4.70;4.60;;;20.70;67.20;;;;;;4938623;29;20800;-67
2024/03/16 09:10:06;;;;;;;4.93;4.82;;;20.70;66.40;;;;;;4938030;29;20468;-61
2024/03/16 09:12:34;;;;;;;4.80;4.70;;;20.70;66.10;;;;;;4935401;29;20202;-64
2024/03/16 09:15:01;;;;;;;5.13;4.73;;;20.70;66.50;;;;;;4934952;29;20480;-64
2024/03/16 09:17:29;;;;;;;4.50;4.40;;;20.70;66.50;;;;;;4935570;29;20881;-65
2024/03/16 09:19:56;;;;;;;5.07;4.93;;;20.70;66.60;;;;;;4943365;29;20541;-65
2024/03/16 09:22:23;;;;;;;4.70;4.60;;;20.70;66.60;;;;;;4934978;29;20488;-64
2024/03/16 09:24:50;;;;;;;4.60;4.50;;;20.70;66.60;;;;;;4934996;29;20453;-64
2024/03/16 09:27:17;;;;;;;4.60;4.50;;;20.70;66.50;;;;;;4936336;29;20489;-66
2024/03/16 09:29:44;;;;;;;4.97;4.87;;;20.70;66.50;;;;;;4940852;29;20513;-64
2024/03/16 09:32:13;;;;;;;4.60;4.50;;;20.70;66.40;;;;;;4935032;29;20442;-68
2024/03/16 09:34:40;;;;;;;5.10;4.80;;;20.70;66.60;;;;;;4934684;29;20548;-65
2024/03/16 09:37:07;;;;;;;5.03;4.93;;;20.70;66.40;;;;;;4934873;29;20441;-65
2024/03/16 09:39:34;;;;;;;4.37;4.27;;;20.70;66.40;;;;;;4939712;29;20445;-66
2024/03/16 09:42:03;;;;;;;4.70;4.60;;;20.70;66.40;;;;;;4938493;29;20448;-65
2024/03/16 09:44:30;;;;;;;5.47;5.30;;;20.70;66.60;;;;;;4927246;29;20467;-65
2024/03/16 09:46:56;;;;;;;5.10;4.90;;;20.80;66.50;;;;;;4934881;29;20446;-66
2024/03/16 09:49:24;;;;;;;4.80;4.70;;;20.80;66.20;;;;;;4935800;29;20463;-66
2024/03/16 09:51:51;;;;;;;4.50;4.50;;;20.70;66.20;;;;;;4934749;29;20456;-66
2024/03/16 09:54:18;;;;;;;4.73;4.63;;;20.70;66.30;;;;;;4934341;29;20830;-66
2024/03/16 09:56:45;;;;;;;4.80;4.70;;;20.70;66.20;;;;;;4937741;29;20449;-67
2024/03/16 09:59:12;;;;;;;5.10;4.90;;;20.70;66.10;;;;;;4942497;29;20437;-67
2024/03/16 10:01:39;;;;;;;4.80;4.70;;;20.70;66.10;;;;;;4934753;29;20441;-67
2024/03/16 10:04:06;;;;;;;6.03;5.93;;;20.70;66.20;;;;;;4934328;29;20492;-67
2024/03/16 10:06:33;;;;;;;5.37;5.27;;;20.70;66.30;;;;;;4937220;29;20790;-67
2024/03/16 10:09:12;;;;;;;5.40;5.30;;;20.70;66.30;;;;;;4942516;29;20441;-67
2024/03/16 10:11:40;;;;;;;5.57;5.47;;;20.70;66.20;;;;;;4929779;29;20816;-67
2024/03/16 10:14:09;;;;;;;5.33;5.23;;;20.70;66.30;;;;;;4931172;29;20466;-67
2024/03/16 10:16:40;;;;;;;4.90;4.80;;;20.70;66.30;;;;;;4936559;29;20540;-67
2024/03/16 10:19:07;;;;;;;5.10;5.00;;;20.70;66.30;;;;;;4941857;29;20450;-67
2024/03/16 10:21:34;;;;;;;5.20;5.10;;;20.70;66.10;;;;;;4934400;29;20449;-67
2024/03/16 10:24:02;;;;;;;5.63;5.53;;;20.70;66.30;;;;;;4934145;29;20530;-67
2024/03/16 10:26:31;;;;;;;5.10;5.00;;;20.60;66.20;;;;;;4935012;29;20493;-67
2024/03/16 10:28:59;;;;;;;5.30;5.20;;;20.70;66.30;;;;;;4934984;29;20485;-65
2024/03/16 10:31:26;;;;;;;4.80;4.80;;;20.70;66.40;;;;;;4935543;29;20499;-66
2024/03/16 10:33:55;;;;;;;5.00;4.90;;;20.70;66.00;;;;;;4960655;28;20437;-67
2024/03/16 10:36:22;;;;;;;5.00;4.90;;;20.70;66.00;;;;;;4935126;29;20920;-65
2024/03/16 10:38:50;;;;;;;5.60;5.50;;;20.60;65.80;;;;;;4933986;29;20449;-65
2024/03/16 10:41:17;;;;;;;5.17;5.07;;;20.60;65.80;;;;;;4934340;29;20473;-66
2024/03/16 10:43:44;;;;;;;5.10;5.00;;;20.60;65.80;;;;;;4949619;29;20485;-68
2024/03/16 10:46:11;;;;;;;4.90;4.80;;;20.60;65.90;;;;;;4933939;29;20450;-65
2024/03/16 10:48:38;;;;;;;4.80;4.70;;;20.60;65.90;;;;;;4934012;29;20450;-67
2024/03/16 10:51:05;;;;;;;5.20;5.10;;;20.60;66.60;;;;;;4933933;29;20914;-67
2024/03/16 10:53:32;;;;;;;5.93;5.77;;;20.60;65.80;;;;;;4933933;29;20452;-65
2024/03/16 10:56:00;;;;;;;5.10;5.00;;;20.60;65.80;;;;;;4933710;29;20465;-64
2024/03/16 10:58:27;;;;;;;5.17;5.10;;;20.60;65.70;;;;;;4933995;29;20823;-65
2024/03/16 11:00:56;;;;;;;5.20;5.20;;;20.60;65.70;;;;;;4934377;29;20456;-66
2024/03/16 11:03:27;;;;;;;12.03;6.50;;;20.60;65.80;;;;;;4947319;29;20485;-67
2024/03/16 11:06:01;;;;;;;5.43;5.33;;;20.60;65.60;;;;;;4943768;29;20473;-65
2024/03/16 11:08:37;;;;;;;5.63;5.53;;;20.60;65.90;;;;;;4933416;29;20460;-67
2024/03/16 11:11:04;;;;;;;5.40;5.30;;;20.60;65.90;;;;;;4937575;29;20438;-68
2024/03/16 11:13:31;;;;;;;5.53;5.43;;;20.60;66.10;;;;;;4941684;29;20464;-67
2024/03/16 11:15:58;;;;;;;5.80;5.70;;;20.60;66.10;;;;;;4933241;29;20497;-68
2024/03/16 11:18:52;;;;;;;6.20;5.90;;;20.60;65.80;;;;;;4933288;29;20449;-69
2024/03/16 11:21:20;;;;;;;6.27;6.07;;;20.60;68.30;;;;;;4951249;28;20505;-64
2024/03/16 11:23:48;;;;;;;5.77;5.37;;;20.70;69.80;;;;;;4933269;29;20477;-64
2024/03/16 11:26:34;;;;;;;5.70;5.47;;;20.70;70.30;;;;;;4932969;29;20442;-62
2024/03/16 11:29:04;;;;;;;6.50;6.00;;;20.70;68.80;;;;;;4933429;29;20452;-62
2024/03/16 11:31:36;;;;;;;6.10;5.70;;;20.70;69.80;;;;;;4936320;29;20863;-62
2024/03/16 11:34:05;;;;;;;6.87;6.57;;;20.70;69.80;;;;;;4933354;29;20457;-63
2024/03/16 11:36:33;;;;;;;7.47;6.90;;;20.70;70.30;;;;;;4932619;29;20472;-63
2024/03/16 11:39:07;;;;;;;6.07;5.78;;;20.70;70.80;;;;;;4933083;29;20485;-65
2024/03/16 11:41:33;;;;;;;7.20;6.80;;;20.70;71.00;;;;;;4936032;29;20280;-64
2024/03/16 11:43:59;;;;;;;8.77;8.27;;;20.70;70.10;;;;;;4932787;29;21015;-66
2024/03/16 11:46:26;;;;;;;9.97;8.17;;;20.70;70.40;;;;;;4932797;29;20442;-68
2024/03/16 11:48:52;;;;;;;10.00;9.30;;;20.80;69.60;;;;;;4933086;29;20651;-68
2024/03/16 11:51:20;;;;;;;8.37;7.83;;;20.80;69.40;;;;;;4934261;29;20943;-68
2024/03/16 11:53:46;;;;;;;10.57;9.30;;;20.80;69.80;;;;;;4933838;29;20208;-69
2024/03/16 11:56:12;;;;;;;9.10;8.50;;;20.90;69.50;;;;;;4932621;29;20808;-68
2024/03/16 11:58:39;;;;;;;10.00;9.10;;;20.90;70.00;;;;;;4933087;29;20213;-68
2024/03/16 12:01:08;;;;;;;8.63;8.00;;;20.90;69.60;;;;;;4933168;29;20441;-64
2024/03/16 12:03:35;;;;;;;8.47;7.80;;;20.90;69.90;;;;;;4933847;29;20486;-65
2024/03/16 12:06:02;;;;;;;10.00;9.03;;;20.90;69.50;;;;;;4932750;29;20450;-65
2024/03/16 12:08:28;;;;;;;9.43;8.63;;;20.90;69.60;;;;;;4932752;29;20452;-64
2024/03/16 12:10:55;;;;;;;10.00;8.17;;;20.90;69.40;;;;;;4932698;29;20822;-67
2024/03/16 12:13:22;;;;;;;9.30;8.47;;;20.90;69.20;;;;;;4932692;29;20206;-66
2024/03/16 12:15:49;;;;;;;8.90;8.30;;;21.00;68.90;;;;;;4978421;23;20516;-62
2024/03/16 12:18:16;;;;;;;11.40;9.83;;;20.90;68.80;;;;;;4948641;29;20452;-64
2024/03/16 12:20:43;;;;;;;9.70;8.77;;;20.90;68.60;;;;;;4941522;29;20962;-61
2024/03/16 12:23:10;;;;;;;10.10;9.17;;;20.90;68.60;;;;;;4948686;29;20485;-65
2024/03/16 12:25:37;;;;;;;9.87;9.17;;;20.90;68.30;;;;;;4944135;29;20567;-64
2024/03/16 12:28:05;;;;;;;8.87;8.10;;;20.90;68.30;;;;;;4944450;29;20446;-61
2024/03/16 12:30:33;;;;;;;9.23;8.47;;;20.90;68.20;;;;;;4950529;29;20213;-62
2024/03/16 12:32:59;;;;;;;9.67;9.00;;;20.90;68.10;;;;;;4952033;28;20456;-63
2024/03/16 12:35:28;;;;;;;10.30;9.27;;;20.90;68.00;;;;;;4953237;28;20460;-64
2024/03/16 12:37:55;;;;;;;7.93;7.47;;;20.90;67.80;;;;;;4947680;29;20452;-63
2024/03/16 12:40:21;;;;;;;8.13;7.53;;;20.90;67.70;;;;;;4952349;29;20452;-62
2024/03/16 12:42:48;;;;;;;8.57;7.80;;;20.90;67.70;;;;;;4955335;28;20448;-64
2024/03/16 12:45:14;;;;;;;9.07;8.47;;;20.90;67.60;;;;;;4954377;28;20491;-63
2024/03/16 12:47:42;;;;;;;8.67;8.07;;;20.90;67.40;;;;;;4944461;29;20842;-61